createdAt,value
2023-05-14T00:06:34.862Z,12.06
2023-05-14T00:16:56.574Z,12.05
2023-05-14T00:27:17.692Z,12.06
2023-05-14T00:37:39.969Z,12.07
2023-05-14T00:48:01.406Z,12.07
2023-05-14T00:58:23.100Z,12.08
2023-05-14T01:08:44.381Z,12.06
2023-05-14T01:19:06.360Z,12.03
2023-05-14T01:29:29.104Z,11.99
2023-05-14T01:39:52.295Z,11.97
2023-05-14T01:50:14.543Z,11.96
2023-05-14T02:00:35.632Z,11.91
2023-05-14T02:10:57.356Z,11.89
2023-05-14T02:21:19.180Z,11.85
2023-05-14T02:31:40.785Z,11.82
2023-05-14T02:42:02.167Z,11.81
2023-05-14T02:52:23.609Z,11.81
2023-05-14T03:02:45.606Z,11.82
2023-05-14T03:13:07.338Z,11.85
2023-05-14T03:23:28.809Z,11.88
2023-05-14T03:33:50.223Z,11.89
2023-05-14T03:44:11.574Z,11.93
2023-05-14T03:54:32.804Z,11.91
2023-05-14T04:04:54.805Z,11.87
2023-05-14T04:15:16.349Z,11.86
2023-05-14T04:25:38.079Z,11.85
2023-05-14T04:35:59.660Z,11.82
2023-05-14T04:46:20.800Z,11.79
2023-05-14T04:56:42.285Z,11.77
2023-05-14T05:07:03.658Z,11.76
2023-05-14T05:17:25.459Z,11.74
2023-05-14T05:27:47.065Z,11.73
2023-05-14T05:38:08.076Z,11.73
2023-05-14T05:48:29.258Z,11.76
2023-05-14T05:58:50.854Z,11.82
2023-05-14T06:09:11.938Z,11.88
2023-05-14T06:19:33.019Z,11.97
2023-05-14T06:29:56.325Z,12.02
2023-05-14T06:40:19.131Z,12.05
2023-05-14T06:50:41.557Z,12.08
2023-05-14T07:01:02.930Z,12.12
2023-05-14T07:11:24.431Z,12.15
2023-05-14T07:21:45.571Z,12.20
2023-05-14T07:32:06.941Z,12.25
2023-05-14T07:42:35.876Z,12.32
2023-05-14T07:52:58.632Z,12.37
2023-05-14T08:03:19.746Z,12.41
2023-05-14T08:13:41.770Z,12.45
2023-05-14T08:24:02.961Z,12.41
2023-05-14T08:34:24.373Z,12.40
2023-05-14T08:44:50.324Z,12.43
2023-05-14T08:55:12.865Z,12.62
2023-05-14T09:05:34.114Z,12.73
2023-05-14T09:15:55.545Z,12.83
2023-05-14T09:26:18.904Z,12.87
2023-05-14T09:36:40.305Z,12.93
2023-05-14T09:47:01.428Z,13.10
2023-05-14T09:57:22.814Z,13.19
2023-05-14T10:07:48.114Z,13.28
2023-05-14T10:18:15.263Z,13.36
2023-05-14T10:28:37.583Z,13.34
2023-05-14T10:38:58.861Z,13.30
2023-05-14T10:49:28.256Z,13.25
2023-05-14T10:59:58.939Z,13.18
2023-05-14T11:10:22.254Z,13.10
2023-05-14T11:20:44.036Z,13.05
2023-05-14T11:31:05.898Z,12.96
2023-05-14T11:41:28.276Z,12.95
2023-05-14T11:51:49.230Z,13.19
2023-05-14T12:02:12.497Z,13.42
2023-05-14T12:12:37.444Z,13.53
2023-05-14T12:22:59.279Z,13.62
2023-05-14T12:33:23.115Z,13.72
2023-05-14T12:43:44.926Z,13.54
2023-05-14T12:54:06.516Z,13.55
2023-05-14T13:04:27.877Z,13.50
2023-05-14T13:14:49.469Z,13.46
2023-05-14T13:25:11.074Z,13.46
2023-05-14T13:35:32.154Z,13.44
2023-05-14T13:45:53.268Z,13.37
2023-05-14T13:56:14.744Z,13.34
2023-05-14T14:06:36.206Z,13.33
2023-05-14T14:16:57.612Z,13.31
2023-05-14T14:27:19.664Z,13.31
2023-05-14T14:37:45.771Z,13.33
2023-05-14T14:48:26.698Z,13.40
2023-05-14T14:58:47.965Z,13.45
2023-05-14T15:09:09.456Z,13.47
2023-05-14T15:19:32.637Z,13.47
2023-05-14T15:29:53.988Z,13.48
2023-05-14T15:40:15.653Z,13.44
2023-05-14T15:50:38.730Z,13.39
2023-05-14T16:00:59.880Z,13.36
2023-05-14T16:11:21.717Z,13.30
2023-05-14T16:21:44.579Z,13.25
2023-05-14T16:32:05.926Z,13.20
2023-05-14T16:42:27.743Z,13.16
2023-05-14T16:52:48.922Z,13.12
2023-05-14T17:03:10.056Z,13.09
2023-05-14T17:13:32.024Z,13.05
2023-05-14T17:23:52.617Z,13.01
2023-05-14T17:34:13.886Z,12.96
2023-05-14T17:44:36.550Z,12.93
2023-05-14T17:54:58.009Z,12.90
2023-05-14T18:05:20.678Z,12.87
2023-05-14T18:15:42.187Z,12.85
2023-05-14T18:26:03.474Z,12.79
2023-05-14T18:36:24.557Z,12.75
2023-05-14T18:46:46.160Z,12.72
2023-05-14T18:57:07.542Z,12.68
2023-05-14T19:07:28.512Z,12.65
2023-05-14T19:17:50.108Z,12.61
2023-05-14T19:28:11.668Z,12.56
2023-05-14T19:38:32.764Z,12.53
2023-05-14T19:48:53.673Z,12.49
2023-05-14T19:59:14.713Z,12.44
2023-05-14T20:09:36.165Z,12.42
2023-05-14T20:19:58.450Z,12.38
2023-05-14T20:30:20.777Z,12.34
2023-05-14T20:40:42.243Z,12.30
2023-05-14T20:51:06.611Z,12.24
2023-05-14T21:01:27.563Z,12.20
2023-05-14T21:11:49.070Z,12.14
2023-05-14T21:22:09.938Z,12.09
2023-05-14T21:32:31.160Z,12.05
2023-05-14T21:42:52.490Z,12.01
2023-05-14T21:53:13.912Z,11.99
2023-05-14T22:03:36.191Z,11.95
2023-05-14T22:13:57.445Z,11.92
2023-05-14T22:24:18.601Z,11.88
2023-05-14T22:34:39.843Z,11.87
2023-05-14T22:45:01.100Z,11.83
2023-05-14T22:55:22.440Z,11.79
2023-05-14T23:05:43.590Z,11.76
2023-05-14T23:16:06.265Z,11.73
2023-05-14T23:26:27.429Z,11.71
2023-05-14T23:36:48.715Z,11.68
2023-05-14T23:47:09.843Z,11.64
2023-05-14T23:57:31.475Z,11.61
